sensor_id;sensor_type;location;lat;lon;timestamp;temperature;humidity
78649;DHT22;67962;47.310;9.642;2023-05-19T00:00:20;14.00;64.70
78649;DHT22;67962;47.310;9.642;2023-05-19T00:02:47;14.00;64.30
78649;DHT22;67962;47.310;9.642;2023-05-19T00:05:13;13.90;64.20
78649;DHT22;67962;47.310;9.642;2023-05-19T00:07:43;13.80;64.70
78649;DHT22;67962;47.310;9.642;2023-05-19T00:10:09;13.70;65.30
78649;DHT22;67962;47.310;9.642;2023-05-19T00:12:37;13.70;65.20
78649;DHT22;67962;47.310;9.642;2023-05-19T00:15:03;13.80;64.90
78649;DHT22;67962;47.310;9.642;2023-05-19T00:17:29;13.90;64.60
78649;DHT22;67962;47.310;9.642;2023-05-19T00:19:55;13.90;64.20
78649;DHT22;67962;47.310;9.642;2023-05-19T00:22:21;13.80;63.90
78649;DHT22;67962;47.310;9.642;2023-05-19T00:24:47;13.70;64.30
78649;DHT22;67962;47.310;9.642;2023-05-19T00:27:13;13.60;64.70
78649;DHT22;67962;47.310;9.642;2023-05-19T00:29:39;13.50;65.30
78649;DHT22;67962;47.310;9.642;2023-05-19T00:32:04;13.50;65.60
78649;DHT22;67962;47.310;9.642;2023-05-19T00:34:30;13.50;65.70
78649;DHT22;67962;47.310;9.642;2023-05-19T00:36:56;13.40;65.70
78649;DHT22;67962;47.310;9.642;2023-05-19T00:39:21;13.40;66.70
78649;DHT22;67962;47.310;9.642;2023-05-19T00:41:47;13.30;65.90
78649;DHT22;67962;47.310;9.642;2023-05-19T00:44:13;13.20;66.10
78649;DHT22;67962;47.310;9.642;2023-05-19T00:46:38;13.20;66.00
78649;DHT22;67962;47.310;9.642;2023-05-19T00:49:05;13.20;65.80
78649;DHT22;67962;47.310;9.642;2023-05-19T00:51:31;13.20;66.10
78649;DHT22;67962;47.310;9.642;2023-05-19T00:53:57;13.10;66.00
78649;DHT22;67962;47.310;9.642;2023-05-19T00:56:22;13.10;66.20
78649;DHT22;67962;47.310;9.642;2023-05-19T00:58:50;13.00;66.80
78649;DHT22;67962;47.310;9.642;2023-05-19T01:01:16;13.00;66.70
78649;DHT22;67962;47.310;9.642;2023-05-19T01:03:43;12.90;66.80
78649;DHT22;67962;47.310;9.642;2023-05-19T01:06:09;12.80;67.10
78649;DHT22;67962;47.310;9.642;2023-05-19T01:08:37;12.90;67.20
78649;DHT22;67962;47.310;9.642;2023-05-19T01:11:04;12.90;67.40
78649;DHT22;67962;47.310;9.642;2023-05-19T01:13:31;12.90;67.30
78649;DHT22;67962;47.310;9.642;2023-05-19T01:18:59;12.80;67.50
78649;DHT22;67962;47.310;9.642;2023-05-19T01:24:12;12.70;68.10
78649;DHT22;67962;47.310;9.642;2023-05-19T01:29:41;12.70;67.70
78649;DHT22;67962;47.310;9.642;2023-05-19T01:32:09;12.60;68.20
78649;DHT22;67962;47.310;9.642;2023-05-19T01:34:39;12.40;68.30
78649;DHT22;67962;47.310;9.642;2023-05-19T01:37:07;12.40;68.70
78649;DHT22;67962;47.310;9.642;2023-05-19T01:39:34;12.40;68.70
78649;DHT22;67962;47.310;9.642;2023-05-19T01:42:00;12.40;68.40
78649;DHT22;67962;47.310;9.642;2023-05-19T01:44:27;12.40;68.80
78649;DHT22;67962;47.310;9.642;2023-05-19T01:46:53;12.40;69.00
78649;DHT22;67962;47.310;9.642;2023-05-19T01:49:19;12.50;68.90
78649;DHT22;67962;47.310;9.642;2023-05-19T01:51:45;12.50;68.90
78649;DHT22;67962;47.310;9.642;2023-05-19T01:54:11;12.50;68.90
78649;DHT22;67962;47.310;9.642;2023-05-19T01:57:15;12.50;68.40
78649;DHT22;67962;47.310;9.642;2023-05-19T01:59:58;12.50;68.30
78649;DHT22;67962;47.310;9.642;2023-05-19T02:02:40;12.50;68.50
78649;DHT22;67962;47.310;9.642;2023-05-19T02:05:14;12.40;68.60
78649;DHT22;67962;47.310;9.642;2023-05-19T02:08:00;12.40;68.90
78649;DHT22;67962;47.310;9.642;2023-05-19T02:10:28;12.40;68.80
78649;DHT22;67962;47.310;9.642;2023-05-19T02:13:00;12.40;68.90
78649;DHT22;67962;47.310;9.642;2023-05-19T02:15:37;12.30;68.90
78649;DHT22;67962;47.310;9.642;2023-05-19T02:18:03;12.30;68.80
78649;DHT22;67962;47.310;9.642;2023-05-19T02:20:30;12.30;69.10
78649;DHT22;67962;47.310;9.642;2023-05-19T02:22:56;12.30;69.20
78649;DHT22;67962;47.310;9.642;2023-05-19T02:25:22;12.40;68.90
78649;DHT22;67962;47.310;9.642;2023-05-19T02:27:49;12.40;69.00
78649;DHT22;67962;47.310;9.642;2023-05-19T02:30:15;12.30;69.00
78649;DHT22;67962;47.310;9.642;2023-05-19T02:32:41;12.30;70.10
78649;DHT22;67962;47.310;9.642;2023-05-19T02:35:11;12.50;69.50
78649;DHT22;67962;47.310;9.642;2023-05-19T02:37:37;12.50;69.00
78649;DHT22;67962;47.310;9.642;2023-05-19T02:40:03;12.40;69.00
78649;DHT22;67962;47.310;9.642;2023-05-19T02:42:29;12.40;69.00
78649;DHT22;67962;47.310;9.642;2023-05-19T02:44:54;12.30;69.20
78649;DHT22;67962;47.310;9.642;2023-05-19T02:47:20;12.30;69.60
78649;DHT22;67962;47.310;9.642;2023-05-19T02:49:46;12.20;69.60
78649;DHT22;67962;47.310;9.642;2023-05-19T02:52:12;12.20;69.50
78649;DHT22;67962;47.310;9.642;2023-05-19T02:54:37;12.20;69.50
78649;DHT22;67962;47.310;9.642;2023-05-19T02:57:03;12.20;69.40
78649;DHT22;67962;47.310;9.642;2023-05-19T02:59:29;12.10;69.80
78649;DHT22;67962;47.310;9.642;2023-05-19T03:02:00;12.10;70.00
78649;DHT22;67962;47.310;9.642;2023-05-19T03:04:27;12.20;69.90
78649;DHT22;67962;47.310;9.642;2023-05-19T03:06:53;12.20;70.10
78649;DHT22;67962;47.310;9.642;2023-05-19T03:09:19;12.30;69.70
78649;DHT22;67962;47.310;9.642;2023-05-19T03:11:45;12.30;69.40
78649;DHT22;67962;47.310;9.642;2023-05-19T03:14:11;12.30;69.60
78649;DHT22;67962;47.310;9.642;2023-05-19T03:16:38;12.30;69.70
78649;DHT22;67962;47.310;9.642;2023-05-19T03:19:06;12.30;69.80
78649;DHT22;67962;47.310;9.642;2023-05-19T03:21:32;12.30;69.60
78649;DHT22;67962;47.310;9.642;2023-05-19T03:23:59;12.20;69.90
78649;DHT22;67962;47.310;9.642;2023-05-19T03:26:25;12.20;70.30
78649;DHT22;67962;47.310;9.642;2023-05-19T03:28:51;12.20;70.30
78649;DHT22;67962;47.310;9.642;2023-05-19T03:31:17;12.20;70.20
78649;DHT22;67962;47.310;9.642;2023-05-19T03:33:43;12.30;70.10
78649;DHT22;67962;47.310;9.642;2023-05-19T03:36:08;12.20;70.10
78649;DHT22;67962;47.310;9.642;2023-05-19T03:38:34;12.20;70.40
78649;DHT22;67962;47.310;9.642;2023-05-19T03:41:00;12.20;70.70
78649;DHT22;67962;47.310;9.642;2023-05-19T03:43:25;12.20;70.80
78649;DHT22;67962;47.310;9.642;2023-05-19T03:45:51;12.20;70.60
78649;DHT22;67962;47.310;9.642;2023-05-19T03:48:17;12.20;70.50
78649;DHT22;67962;47.310;9.642;2023-05-19T03:50:43;12.20;70.90
78649;DHT22;67962;47.310;9.642;2023-05-19T03:53:09;12.20;70.60
78649;DHT22;67962;47.310;9.642;2023-05-19T03:55:35;12.20;70.40
78649;DHT22;67962;47.310;9.642;2023-05-19T03:58:02;12.30;70.50
78649;DHT22;67962;47.310;9.642;2023-05-19T04:00:28;12.30;70.30
78649;DHT22;67962;47.310;9.642;2023-05-19T04:02:53;12.30;70.20
78649;DHT22;67962;47.310;9.642;2023-05-19T04:05:19;12.20;70.50
78649;DHT22;67962;47.310;9.642;2023-05-19T04:07:45;12.20;70.90
78649;DHT22;67962;47.310;9.642;2023-05-19T04:10:11;12.20;70.90
78649;DHT22;67962;47.310;9.642;2023-05-19T04:12:37;12.30;70.90
78649;DHT22;67962;47.310;9.642;2023-05-19T04:15:03;12.30;70.70
78649;DHT22;67962;47.310;9.642;2023-05-19T04:17:30;12.30;70.80
78649;DHT22;67962;47.310;9.642;2023-05-19T04:19:56;12.20;70.90
78649;DHT22;67962;47.310;9.642;2023-05-19T04:22:22;12.10;70.90
78649;DHT22;67962;47.310;9.642;2023-05-19T04:24:47;12.20;71.30
78649;DHT22;67962;47.310;9.642;2023-05-19T04:27:14;12.30;71.20
78649;DHT22;67962;47.310;9.642;2023-05-19T04:29:42;12.30;71.10
78649;DHT22;67962;47.310;9.642;2023-05-19T04:32:07;12.40;71.00
78649;DHT22;67962;47.310;9.642;2023-05-19T04:34:34;12.40;70.70
78649;DHT22;67962;47.310;9.642;2023-05-19T04:37:00;12.40;70.70
78649;DHT22;67962;47.310;9.642;2023-05-19T04:39:26;12.40;70.80
78649;DHT22;67962;47.310;9.642;2023-05-19T04:41:52;12.30;71.00
78649;DHT22;67962;47.310;9.642;2023-05-19T04:44:18;12.40;71.20
78649;DHT22;67962;47.310;9.642;2023-05-19T04:46:44;12.30;71.10
78649;DHT22;67962;47.310;9.642;2023-05-19T04:49:10;12.40;71.00
78649;DHT22;67962;47.310;9.642;2023-05-19T04:51:39;12.40;71.20
78649;DHT22;67962;47.310;9.642;2023-05-19T04:54:08;12.50;71.10
78649;DHT22;67962;47.310;9.642;2023-05-19T04:56:34;12.60;70.80
78649;DHT22;67962;47.310;9.642;2023-05-19T04:59:00;12.70;70.40
78649;DHT22;67962;47.310;9.642;2023-05-19T05:01:26;12.70;70.40
78649;DHT22;67962;47.310;9.642;2023-05-19T05:03:53;12.70;70.50
78649;DHT22;67962;47.310;9.642;2023-05-19T05:06:23;12.70;70.80
78649;DHT22;67962;47.310;9.642;2023-05-19T05:08:49;12.70;71.10
78649;DHT22;67962;47.310;9.642;2023-05-19T05:11:16;12.70;70.90
78649;DHT22;67962;47.310;9.642;2023-05-19T05:13:42;12.70;70.90
78649;DHT22;67962;47.310;9.642;2023-05-19T05:16:08;12.70;70.80
78649;DHT22;67962;47.310;9.642;2023-05-19T05:18:34;12.80;71.10
78649;DHT22;67962;47.310;9.642;2023-05-19T05:21:03;12.80;71.00
78649;DHT22;67962;47.310;9.642;2023-05-19T05:23:29;12.80;71.10
78649;DHT22;67962;47.310;9.642;2023-05-19T05:25:55;12.90;70.80
78649;DHT22;67962;47.310;9.642;2023-05-19T05:28:21;12.90;71.00
78649;DHT22;67962;47.310;9.642;2023-05-19T05:30:46;12.90;70.70
78649;DHT22;67962;47.310;9.642;2023-05-19T05:33:13;13.00;70.70
78649;DHT22;67962;47.310;9.642;2023-05-19T05:35:39;13.00;70.90
78649;DHT22;67962;47.310;9.642;2023-05-19T05:38:05;13.00;70.70
78649;DHT22;67962;47.310;9.642;2023-05-19T05:40:31;13.10;70.60
78649;DHT22;67962;47.310;9.642;2023-05-19T05:42:56;13.20;69.90
78649;DHT22;67962;47.310;9.642;2023-05-19T05:45:25;13.40;69.30
78649;DHT22;67962;47.310;9.642;2023-05-19T05:47:51;13.40;69.00
78649;DHT22;67962;47.310;9.642;2023-05-19T05:50:17;13.50;68.70
78649;DHT22;67962;47.310;9.642;2023-05-19T05:52:45;13.60;68.40
78649;DHT22;67962;47.310;9.642;2023-05-19T05:55:12;13.70;68.40
78649;DHT22;67962;47.310;9.642;2023-05-19T05:57:38;13.70;68.10
78649;DHT22;67962;47.310;9.642;2023-05-19T06:00:07;13.70;68.20
78649;DHT22;67962;47.310;9.642;2023-05-19T06:02:45;13.70;67.80
78649;DHT22;67962;47.310;9.642;2023-05-19T06:05:11;13.70;68.00
78649;DHT22;67962;47.310;9.642;2023-05-19T06:07:38;13.60;68.00
78649;DHT22;67962;47.310;9.642;2023-05-19T06:10:06;13.70;68.30
78649;DHT22;67962;47.310;9.642;2023-05-19T06:12:32;13.80;67.90
78649;DHT22;67962;47.310;9.642;2023-05-19T06:14:58;13.80;67.60
78649;DHT22;67962;47.310;9.642;2023-05-19T06:17:24;13.80;67.60
78649;DHT22;67962;47.310;9.642;2023-05-19T06:19:50;13.80;67.80
78649;DHT22;67962;47.310;9.642;2023-05-19T06:22:15;13.90;67.70
78649;DHT22;67962;47.310;9.642;2023-05-19T06:24:42;13.90;67.90
78649;DHT22;67962;47.310;9.642;2023-05-19T06:27:07;14.00;67.90
78649;DHT22;67962;47.310;9.642;2023-05-19T06:29:33;14.10;67.50
78649;DHT22;67962;47.310;9.642;2023-05-19T06:31:58;14.10;67.40
78649;DHT22;67962;47.310;9.642;2023-05-19T06:34:24;14.20;67.20
78649;DHT22;67962;47.310;9.642;2023-05-19T06:36:51;14.30;67.10
78649;DHT22;67962;47.310;9.642;2023-05-19T06:39:16;14.50;66.90
78649;DHT22;67962;47.310;9.642;2023-05-19T06:41:42;14.50;66.40
78649;DHT22;67962;47.310;9.642;2023-05-19T06:44:08;14.60;66.40
78649;DHT22;67962;47.310;9.642;2023-05-19T06:46:33;14.60;66.50
78649;DHT22;67962;47.310;9.642;2023-05-19T06:48:59;14.60;66.60
78649;DHT22;67962;47.310;9.642;2023-05-19T06:51:25;14.60;66.60
78649;DHT22;67962;47.310;9.642;2023-05-19T06:53:51;14.70;66.30
78649;DHT22;67962;47.310;9.642;2023-05-19T06:56:17;14.70;66.50
78649;DHT22;67962;47.310;9.642;2023-05-19T06:58:43;14.90;65.80
78649;DHT22;67962;47.310;9.642;2023-05-19T07:01:09;14.80;65.60
78649;DHT22;67962;47.310;9.642;2023-05-19T07:03:36;15.00;65.70
78649;DHT22;67962;47.310;9.642;2023-05-19T07:06:03;15.20;65.50
78649;DHT22;67962;47.310;9.642;2023-05-19T07:08:28;15.40;63.70
78649;DHT22;67962;47.310;9.642;2023-05-19T07:10:54;15.40;61.70
78649;DHT22;67962;47.310;9.642;2023-05-19T07:13:20;15.30;61.60
78649;DHT22;67962;47.310;9.642;2023-05-19T07:15:46;15.50;63.20
78649;DHT22;67962;47.310;9.642;2023-05-19T07:18:13;15.80;62.90
78649;DHT22;67962;47.310;9.642;2023-05-19T07:20:39;15.90;62.20
78649;DHT22;67962;47.310;9.642;2023-05-19T07:23:05;16.20;62.80
78649;DHT22;67962;47.310;9.642;2023-05-19T07:25:31;16.50;61.50
78649;DHT22;67962;47.310;9.642;2023-05-19T07:27:57;16.80;59.10
78649;DHT22;67962;47.310;9.642;2023-05-19T07:30:23;17.10;59.20
78649;DHT22;67962;47.310;9.642;2023-05-19T07:32:49;17.20;56.80
78649;DHT22;67962;47.310;9.642;2023-05-19T07:35:15;17.30;56.10
78649;DHT22;67962;47.310;9.642;2023-05-19T07:37:40;17.20;55.20
78649;DHT22;67962;47.310;9.642;2023-05-19T07:40:07;17.10;55.40
78649;DHT22;67962;47.310;9.642;2023-05-19T07:42:33;16.80;56.00
78649;DHT22;67962;47.310;9.642;2023-05-19T07:44:59;17.10;57.90
78649;DHT22;67962;47.310;9.642;2023-05-19T07:47:25;17.50;56.60
78649;DHT22;67962;47.310;9.642;2023-05-19T07:49:51;17.60;55.00
78649;DHT22;67962;47.310;9.642;2023-05-19T07:52:17;17.60;56.10
78649;DHT22;67962;47.310;9.642;2023-05-19T07:54:43;17.80;55.50
78649;DHT22;67962;47.310;9.642;2023-05-19T07:57:09;17.90;53.20
78649;DHT22;67962;47.310;9.642;2023-05-19T07:59:34;17.70;54.00
78649;DHT22;67962;47.310;9.642;2023-05-19T08:02:00;17.70;56.00
78649;DHT22;67962;47.310;9.642;2023-05-19T08:04:26;17.70;54.70
78649;DHT22;67962;47.310;9.642;2023-05-19T08:06:52;17.50;54.80
78649;DHT22;67962;47.310;9.642;2023-05-19T08:09:18;17.20;55.90
78649;DHT22;67962;47.310;9.642;2023-05-19T08:11:44;17.20;56.40
78649;DHT22;67962;47.310;9.642;2023-05-19T08:14:11;17.10;55.70
78649;DHT22;67962;47.310;9.642;2023-05-19T08:16:37;17.10;57.20
78649;DHT22;67962;47.310;9.642;2023-05-19T08:19:03;17.40;57.40
78649;DHT22;67962;47.310;9.642;2023-05-19T08:21:31;17.50;55.60
78649;DHT22;67962;47.310;9.642;2023-05-19T08:24:00;17.60;55.60
78649;DHT22;67962;47.310;9.642;2023-05-19T08:26:27;17.30;55.70
78649;DHT22;67962;47.310;9.642;2023-05-19T08:28:52;17.00;56.30
78649;DHT22;67962;47.310;9.642;2023-05-19T08:31:18;16.90;56.90
78649;DHT22;67962;47.310;9.642;2023-05-19T08:33:44;16.90;57.30
78649;DHT22;67962;47.310;9.642;2023-05-19T08:36:10;17.10;56.70
78649;DHT22;67962;47.310;9.642;2023-05-19T08:38:36;17.30;56.90
78649;DHT22;67962;47.310;9.642;2023-05-19T08:41:02;17.70;56.70
78649;DHT22;67962;47.310;9.642;2023-05-19T08:43:28;18.00;55.90
78649;DHT22;67962;47.310;9.642;2023-05-19T08:45:54;18.40;54.80
78649;DHT22;67962;47.310;9.642;2023-05-19T08:48:20;18.50;52.30
78649;DHT22;67962;47.310;9.642;2023-05-19T08:51:49;18.40;53.60
78649;DHT22;67962;47.310;9.642;2023-05-19T08:54:01;18.50;53.70
78649;DHT22;67962;47.310;9.642;2023-05-19T08:56:29;18.50;52.40
78649;DHT22;67962;47.310;9.642;2023-05-19T08:58:56;18.60;55.00
78649;DHT22;67962;47.310;9.642;2023-05-19T09:01:24;18.90;53.90
78649;DHT22;67962;47.310;9.642;2023-05-19T09:03:53;19.20;53.00
78649;DHT22;67962;47.310;9.642;2023-05-19T09:06:19;19.30;51.70
78649;DHT22;67962;47.310;9.642;2023-05-19T09:08:45;19.10;50.00
78649;DHT22;67962;47.310;9.642;2023-05-19T09:11:11;18.70;51.40
78649;DHT22;67962;47.310;9.642;2023-05-19T09:13:38;18.50;52.70
78649;DHT22;67962;47.310;9.642;2023-05-19T09:16:04;18.70;52.60
78649;DHT22;67962;47.310;9.642;2023-05-19T09:18:30;18.70;51.80
78649;DHT22;67962;47.310;9.642;2023-05-19T09:20:58;18.70;51.40
78649;DHT22;67962;47.310;9.642;2023-05-19T09:23:30;18.80;52.80
78649;DHT22;67962;47.310;9.642;2023-05-19T09:26:03;19.00;52.20
78649;DHT22;67962;47.310;9.642;2023-05-19T09:28:33;19.10;52.00
78649;DHT22;67962;47.310;9.642;2023-05-19T09:33:26;18.90;52.10
78649;DHT22;67962;47.310;9.642;2023-05-19T09:35:53;18.80;51.50
78649;DHT22;67962;47.310;9.642;2023-05-19T09:38:22;19.00;51.80
78649;DHT22;67962;47.310;9.642;2023-05-19T09:40:48;19.00;50.50
78649;DHT22;67962;47.310;9.642;2023-05-19T09:43:15;18.80;50.70
78649;DHT22;67962;47.310;9.642;2023-05-19T09:45:41;18.70;51.60
78649;DHT22;67962;47.310;9.642;2023-05-19T09:48:06;18.80;52.70
78649;DHT22;67962;47.310;9.642;2023-05-19T09:50:32;18.90;53.60
78649;DHT22;67962;47.310;9.642;2023-05-19T09:52:58;19.00;52.80
78649;DHT22;67962;47.310;9.642;2023-05-19T09:55:26;19.20;53.40
78649;DHT22;67962;47.310;9.642;2023-05-19T09:57:54;19.10;52.20
78649;DHT22;67962;47.310;9.642;2023-05-19T10:00:25;19.00;50.90
78649;DHT22;67962;47.310;9.642;2023-05-19T10:02:51;18.90;52.20
78649;DHT22;67962;47.310;9.642;2023-05-19T10:05:18;18.60;53.40
78649;DHT22;67962;47.310;9.642;2023-05-19T10:07:52;18.50;52.00
78649;DHT22;67962;47.310;9.642;2023-05-19T10:10:20;18.60;54.00
78649;DHT22;67962;47.310;9.642;2023-05-19T10:12:46;18.80;53.10
78649;DHT22;67962;47.310;9.642;2023-05-19T10:15:17;18.90;51.30
78649;DHT22;67962;47.310;9.642;2023-05-19T10:17:43;18.90;52.40
78649;DHT22;67962;47.310;9.642;2023-05-19T10:20:14;18.60;53.00
78649;DHT22;67962;47.310;9.642;2023-05-19T10:22:41;18.50;53.00
78649;DHT22;67962;47.310;9.642;2023-05-19T10:25:08;18.50;53.50
78649;DHT22;67962;47.310;9.642;2023-05-19T10:28:02;18.40;52.70
78649;DHT22;67962;47.310;9.642;2023-05-19T10:30:33;18.30;52.50
78649;DHT22;67962;47.310;9.642;2023-05-19T10:33:01;18.30;52.90
78649;DHT22;67962;47.310;9.642;2023-05-19T10:38:41;18.30;54.20
78649;DHT22;67962;47.310;9.642;2023-05-19T10:46:34;18.20;53.40
78649;DHT22;67962;47.310;9.642;2023-05-19T10:49:00;18.00;52.60
78649;DHT22;67962;47.310;9.642;2023-05-19T10:51:33;18.00;53.50
78649;DHT22;67962;47.310;9.642;2023-05-19T10:54:06;18.00;53.80
78649;DHT22;67962;47.310;9.642;2023-05-19T10:56:33;18.10;54.00
78649;DHT22;67962;47.310;9.642;2023-05-19T10:59:01;18.30;54.30
78649;DHT22;67962;47.310;9.642;2023-05-19T11:01:34;18.60;55.00
78649;DHT22;67962;47.310;9.642;2023-05-19T11:04:06;18.50;52.00
78649;DHT22;67962;47.310;9.642;2023-05-19T11:06:33;18.60;53.20
78649;DHT22;67962;47.310;9.642;2023-05-19T11:09:19;18.90;52.70
78649;DHT22;67962;47.310;9.642;2023-05-19T11:11:51;19.00;52.50
78649;DHT22;67962;47.310;9.642;2023-05-19T11:14:22;19.00;50.60
78649;DHT22;67962;47.310;9.642;2023-05-19T11:16:58;18.70;51.00
78649;DHT22;67962;47.310;9.642;2023-05-19T11:19:26;18.70;52.40
78649;DHT22;67962;47.310;9.642;2023-05-19T11:21:53;19.00;54.80
78649;DHT22;67962;47.310;9.642;2023-05-19T11:27:27;19.30;50.80
78649;DHT22;67962;47.310;9.642;2023-05-19T11:29:58;19.50;52.50
78649;DHT22;67962;47.310;9.642;2023-05-19T11:32:31;19.60;51.40
78649;DHT22;67962;47.310;9.642;2023-05-19T11:35:04;19.90;51.60
78649;DHT22;67962;47.310;9.642;2023-05-19T11:37:33;20.00;48.70
78649;DHT22;67962;47.310;9.642;2023-05-19T11:40:04;19.90;50.40
78649;DHT22;67962;47.310;9.642;2023-05-19T11:42:32;19.80;50.30
78649;DHT22;67962;47.310;9.642;2023-05-19T11:45:02;19.70;50.10
78649;DHT22;67962;47.310;9.642;2023-05-19T11:47:29;19.70;49.10
78649;DHT22;67962;47.310;9.642;2023-05-19T11:49:55;19.70;50.90
78649;DHT22;67962;47.310;9.642;2023-05-19T11:52:22;19.80;50.70
78649;DHT22;67962;47.310;9.642;2023-05-19T11:54:48;19.90;50.80
78649;DHT22;67962;47.310;9.642;2023-05-19T11:57:14;20.00;48.30
78649;DHT22;67962;47.310;9.642;2023-05-19T11:59:40;19.90;48.20
78649;DHT22;67962;47.310;9.642;2023-05-19T12:02:23;19.90;50.40
78649;DHT22;67962;47.310;9.642;2023-05-19T12:04:50;19.90;50.80
78649;DHT22;67962;47.310;9.642;2023-05-19T12:07:18;19.90;49.70
78649;DHT22;67962;47.310;9.642;2023-05-19T12:09:48;19.90;50.10
78649;DHT22;67962;47.310;9.642;2023-05-19T12:12:15;19.90;49.10
78649;DHT22;67962;47.310;9.642;2023-05-19T12:14:42;19.80;50.90
78649;DHT22;67962;47.310;9.642;2023-05-19T12:17:18;19.50;49.30
78649;DHT22;67962;47.310;9.642;2023-05-19T12:19:47;19.50;51.60
78649;DHT22;67962;47.310;9.642;2023-05-19T12:22:14;19.40;50.00
78649;DHT22;67962;47.310;9.642;2023-05-19T12:24:41;19.50;50.80
78649;DHT22;67962;47.310;9.642;2023-05-19T12:27:17;19.50;49.40
78649;DHT22;67962;47.310;9.642;2023-05-19T12:29:48;19.50;51.40
78649;DHT22;67962;47.310;9.642;2023-05-19T12:32:16;19.40;49.50
78649;DHT22;67962;47.310;9.642;2023-05-19T12:34:41;19.50;51.10
78649;DHT22;67962;47.310;9.642;2023-05-19T12:37:09;19.60;50.30
78649;DHT22;67962;47.310;9.642;2023-05-19T12:39:35;19.60;50.00
78649;DHT22;67962;47.310;9.642;2023-05-19T12:42:03;19.60;50.20
78649;DHT22;67962;47.310;9.642;2023-05-19T12:44:29;19.90;51.70
78649;DHT22;67962;47.310;9.642;2023-05-19T12:46:58;19.70;49.70
78649;DHT22;67962;47.310;9.642;2023-05-19T12:49:24;19.90;49.50
78649;DHT22;67962;47.310;9.642;2023-05-19T12:51:53;20.10;50.20
78649;DHT22;67962;47.310;9.642;2023-05-19T12:54:20;20.30;50.10
78649;DHT22;67962;47.310;9.642;2023-05-19T12:56:50;20.30;48.50
78649;DHT22;67962;47.310;9.642;2023-05-19T12:59:23;20.10;49.30
78649;DHT22;67962;47.310;9.642;2023-05-19T13:01:58;20.10;48.50
78649;DHT22;67962;47.310;9.642;2023-05-19T13:04:25;20.10;51.20
78649;DHT22;67962;47.310;9.642;2023-05-19T13:06:52;20.10;50.00
78649;DHT22;67962;47.310;9.642;2023-05-19T13:09:18;20.20;48.90
78649;DHT22;67962;47.310;9.642;2023-05-19T13:11:45;20.20;49.80
78649;DHT22;67962;47.310;9.642;2023-05-19T13:14:16;20.40;50.00
78649;DHT22;67962;47.310;9.642;2023-05-19T13:16:44;20.40;46.90
78649;DHT22;67962;47.310;9.642;2023-05-19T13:19:12;20.50;48.70
78649;DHT22;67962;47.310;9.642;2023-05-19T13:21:38;20.30;46.60
78649;DHT22;67962;47.310;9.642;2023-05-19T13:24:04;20.10;48.00
78649;DHT22;67962;47.310;9.642;2023-05-19T13:26:30;20.20;48.20
78649;DHT22;67962;47.310;9.642;2023-05-19T13:28:56;20.20;50.40
78649;DHT22;67962;47.310;9.642;2023-05-19T13:31:21;20.00;49.20
78649;DHT22;67962;47.310;9.642;2023-05-19T13:33:47;19.80;48.50
78649;DHT22;67962;47.310;9.642;2023-05-19T13:36:13;19.80;48.30
78649;DHT22;67962;47.310;9.642;2023-05-19T13:38:38;19.80;49.60
78649;DHT22;67962;47.310;9.642;2023-05-19T13:41:06;19.70;48.30
78649;DHT22;67962;47.310;9.642;2023-05-19T13:43:32;19.60;49.80
78649;DHT22;67962;47.310;9.642;2023-05-19T13:45:57;19.70;48.20
78649;DHT22;67962;47.310;9.642;2023-05-19T13:48:23;19.50;48.10
78649;DHT22;67962;47.310;9.642;2023-05-19T13:50:49;19.50;49.40
78649;DHT22;67962;47.310;9.642;2023-05-19T13:53:16;19.50;50.00
78649;DHT22;67962;47.310;9.642;2023-05-19T13:55:42;19.40;49.50
78649;DHT22;67962;47.310;9.642;2023-05-19T13:58:08;19.40;49.80
78649;DHT22;67962;47.310;9.642;2023-05-19T14:00:35;19.50;49.70
78649;DHT22;67962;47.310;9.642;2023-05-19T14:03:01;19.40;49.00
78649;DHT22;67962;47.310;9.642;2023-05-19T14:05:27;19.40;48.90
78649;DHT22;67962;47.310;9.642;2023-05-19T14:07:53;19.30;49.70
78649;DHT22;67962;47.310;9.642;2023-05-19T14:10:19;19.30;50.40
78649;DHT22;67962;47.310;9.642;2023-05-19T14:12:45;19.30;49.50
78649;DHT22;67962;47.310;9.642;2023-05-19T14:15:11;19.10;50.20
78649;DHT22;67962;47.310;9.642;2023-05-19T14:17:36;19.00;50.10
78649;DHT22;67962;47.310;9.642;2023-05-19T14:20:02;18.90;49.70
78649;DHT22;67962;47.310;9.642;2023-05-19T14:22:28;18.70;49.80
78649;DHT22;67962;47.310;9.642;2023-05-19T14:24:54;18.60;51.10
78649;DHT22;67962;47.310;9.642;2023-05-19T14:27:20;18.60;51.20
78649;DHT22;67962;47.310;9.642;2023-05-19T14:29:46;18.70;51.60
78649;DHT22;67962;47.310;9.642;2023-05-19T14:32:13;18.70;51.70
78649;DHT22;67962;47.310;9.642;2023-05-19T14:34:38;18.70;51.50
78649;DHT22;67962;47.310;9.642;2023-05-19T14:37:04;18.70;50.80
78649;DHT22;67962;47.310;9.642;2023-05-19T14:39:30;18.60;51.90
78649;DHT22;67962;47.310;9.642;2023-05-19T14:41:56;18.50;52.10
78649;DHT22;67962;47.310;9.642;2023-05-19T14:44:28;18.40;51.60
78649;DHT22;67962;47.310;9.642;2023-05-19T14:46:54;18.40;52.10
78649;DHT22;67962;47.310;9.642;2023-05-19T14:49:19;18.50;52.50
78649;DHT22;67962;47.310;9.642;2023-05-19T14:51:45;18.50;52.80
78649;DHT22;67962;47.310;9.642;2023-05-19T14:54:11;18.60;52.20
78649;DHT22;67962;47.310;9.642;2023-05-19T14:56:36;18.60;51.50
78649;DHT22;67962;47.310;9.642;2023-05-19T14:59:02;18.60;52.00
78649;DHT22;67962;47.310;9.642;2023-05-19T15:01:28;18.60;52.50
78649;DHT22;67962;47.310;9.642;2023-05-19T15:03:54;18.60;53.10
78649;DHT22;67962;47.310;9.642;2023-05-19T15:06:20;18.50;52.70
78649;DHT22;67962;47.310;9.642;2023-05-19T15:08:46;18.50;52.90
78649;DHT22;67962;47.310;9.642;2023-05-19T15:11:12;18.40;51.80
78649;DHT22;67962;47.310;9.642;2023-05-19T15:13:37;18.30;52.60
78649;DHT22;67962;47.310;9.642;2023-05-19T15:16:03;18.40;53.40
78649;DHT22;67962;47.310;9.642;2023-05-19T15:18:29;18.40;53.80
78649;DHT22;67962;47.310;9.642;2023-05-19T15:20:55;18.60;56.00
78649;DHT22;67962;47.310;9.642;2023-05-19T15:23:21;18.60;54.50
78649;DHT22;67962;47.310;9.642;2023-05-19T15:25:46;18.60;53.50
78649;DHT22;67962;47.310;9.642;2023-05-19T15:28:12;18.60;55.40
78649;DHT22;67962;47.310;9.642;2023-05-19T15:30:38;18.90;55.10
78649;DHT22;67962;47.310;9.642;2023-05-19T15:33:04;19.00;54.70
78649;DHT22;67962;47.310;9.642;2023-05-19T15:35:30;19.20;55.50
78649;DHT22;67962;47.310;9.642;2023-05-19T15:37:55;19.30;53.30
78649;DHT22;67962;47.310;9.642;2023-05-19T15:40:22;19.20;52.40
78649;DHT22;67962;47.310;9.642;2023-05-19T15:42:48;19.20;53.90
78649;DHT22;67962;47.310;9.642;2023-05-19T15:45:14;19.10;52.90
78649;DHT22;67962;47.310;9.642;2023-05-19T15:47:41;19.00;52.00
78649;DHT22;67962;47.310;9.642;2023-05-19T15:50:07;18.80;52.70
78649;DHT22;67962;47.310;9.642;2023-05-19T15:52:33;18.60;53.50